createdAt,value
2022-08-19T00:00:27.024Z,11.20
2022-08-19T00:01:30.454Z,12.90
2022-08-19T00:02:27.013Z,11.60
2022-08-19T00:03:27.008Z,11.40
2022-08-19T00:04:27.153Z,10.80
2022-08-19T00:05:26.995Z,11.30
2022-08-19T00:06:26.987Z,10.30
2022-08-19T00:07:26.984Z,12.40
2022-08-19T00:08:26.976Z,11.80
2022-08-19T00:09:26.972Z,10.90
2022-08-19T00:10:26.967Z,13.20
2022-08-19T00:11:26.965Z,12.50
2022-08-19T00:12:26.950Z,13.00
2022-08-19T00:13:26.945Z,12.10
2022-08-19T00:14:26.939Z,14.20
2022-08-19T00:15:26.933Z,15.00
2022-08-19T00:16:27.106Z,13.40
2022-08-19T00:17:26.923Z,12.40
2022-08-19T00:18:26.915Z,11.80
2022-08-19T00:19:26.909Z,12.70
2022-08-19T00:20:26.901Z,12.20
2022-08-19T00:21:26.902Z,13.90
2022-08-19T00:22:26.889Z,16.10
2022-08-19T00:23:26.935Z,13.50
2022-08-19T00:24:26.877Z,12.80
2022-08-19T00:25:29.884Z,13.70
2022-08-19T00:26:26.865Z,12.90
2022-08-19T00:27:27.040Z,14.30
2022-08-19T00:28:26.851Z,14.80
2022-08-19T00:29:26.849Z,14.90
2022-08-19T00:30:26.842Z,15.20
2022-08-19T00:31:26.836Z,13.70
2022-08-19T00:32:27.227Z,13.00
2022-08-19T00:33:26.825Z,13.80
2022-08-19T00:34:26.816Z,13.40
2022-08-19T00:35:26.812Z,14.10
2022-08-19T00:36:26.803Z,13.70
2022-08-19T00:37:26.800Z,14.50
2022-08-19T00:38:34.989Z,13.70
2022-08-19T00:39:26.786Z,16.10
2022-08-19T00:40:26.797Z,14.60
2022-08-19T00:41:26.776Z,14.70
2022-08-19T00:42:26.768Z,14.80
2022-08-19T00:43:26.836Z,13.80
2022-08-19T00:44:27.384Z,14.40
2022-08-19T00:45:26.779Z,14.50
2022-08-19T00:46:26.749Z,13.30
2022-08-19T00:47:26.756Z,14.90
2022-08-19T00:48:26.755Z,14.60
2022-08-19T00:49:26.727Z,14.00
2022-08-19T00:50:26.726Z,13.90
2022-08-19T00:51:26.713Z,14.60
2022-08-19T00:52:26.705Z,14.60
2022-08-19T00:53:26.702Z,16.60
2022-08-19T00:54:31.046Z,14.10
2022-08-19T00:55:26.689Z,15.70
2022-08-19T00:56:26.683Z,16.60
2022-08-19T00:57:26.677Z,15.60
2022-08-19T00:58:26.669Z,18.20
2022-08-19T00:59:56.557Z,16.10
2022-08-19T01:00:26.659Z,16.90
2022-08-19T01:01:26.699Z,15.50
2022-08-19T01:02:26.751Z,15.60
2022-08-19T01:03:26.641Z,15.70
2022-08-19T01:04:26.634Z,17.20
2022-08-19T01:05:26.629Z,19.30
2022-08-19T01:06:26.655Z,16.60
2022-08-19T01:07:26.616Z,15.60
2022-08-19T01:08:26.612Z,17.60
2022-08-19T01:09:26.604Z,16.60
2022-08-19T01:10:26.594Z,15.20
2022-08-19T01:11:26.590Z,17.90
2022-08-19T01:12:26.584Z,15.90
2022-08-19T01:13:26.592Z,17.20
2022-08-19T01:14:26.569Z,16.70
2022-08-19T01:15:26.563Z,18.20
2022-08-19T01:16:26.556Z,16.90
2022-08-19T01:17:26.553Z,18.80
2022-08-19T01:18:26.544Z,17.60
2022-08-19T01:19:26.542Z,16.10
2022-08-19T01:20:26.533Z,19.00
2022-08-19T01:21:26.528Z,18.50
2022-08-19T01:22:31.426Z,17.00
2022-08-19T01:23:26.515Z,17.20
2022-08-19T01:24:26.507Z,15.60
2022-08-19T01:25:26.561Z,15.50
2022-08-19T01:26:26.495Z,16.50
2022-08-19T01:27:26.492Z,17.90
2022-08-19T01:28:34.313Z,15.40
2022-08-19T01:29:26.478Z,18.10
2022-08-19T01:30:26.470Z,18.00
2022-08-19T01:31:27.766Z,15.20
2022-08-19T01:32:33.173Z,15.00
2022-08-19T01:33:26.453Z,19.00
2022-08-19T01:34:26.447Z,18.50
2022-08-19T01:35:26.455Z,16.40
2022-08-19T01:36:26.432Z,16.00
2022-08-19T01:37:27.211Z,15.60
2022-08-19T01:38:26.520Z,15.50
2022-08-19T01:39:26.415Z,15.90
2022-08-19T01:40:26.407Z,15.50
2022-08-19T01:41:26.403Z,15.50
2022-08-19T01:42:30.192Z,16.50
2022-08-19T01:43:26.391Z,16.00
2022-08-19T01:44:26.382Z,18.10
2022-08-19T01:45:26.377Z,16.00
2022-08-19T01:46:26.419Z,16.70
2022-08-19T01:47:26.365Z,17.80
2022-08-19T01:48:26.357Z,17.30
2022-08-19T01:49:26.352Z,16.10
2022-08-19T01:50:26.345Z,18.10
2022-08-19T01:51:26.341Z,18.40
2022-08-19T01:52:26.333Z,16.60
2022-08-19T01:53:26.710Z,18.30
2022-08-19T01:54:27.563Z,16.90
2022-08-19T01:55:26.317Z,17.80
2022-08-19T01:56:26.309Z,16.60
2022-08-19T01:57:26.304Z,15.60
2022-08-19T01:58:26.295Z,17.90
2022-08-19T01:59:26.290Z,16.60
2022-08-19T02:00:26.282Z,18.00
2022-08-19T02:01:26.297Z,15.40
2022-08-19T02:02:26.270Z,16.60
2022-08-19T02:03:26.266Z,15.90
2022-08-19T02:04:26.259Z,17.80
2022-08-19T02:05:26.255Z,15.10
2022-08-19T02:06:26.914Z,18.10
2022-08-19T02:07:26.242Z,16.10
2022-08-19T02:08:26.233Z,13.90
2022-08-19T02:09:26.229Z,18.00
2022-08-19T02:10:26.223Z,14.50
2022-08-19T02:11:26.217Z,17.10
2022-08-19T02:12:26.258Z,18.30
2022-08-19T02:13:26.646Z,18.80
2022-08-19T02:14:26.197Z,15.80
2022-08-19T02:15:26.191Z,18.60
2022-08-19T02:16:26.283Z,17.50
2022-08-19T02:17:26.180Z,16.10
2022-08-19T02:18:28.072Z,16.80
2022-08-19T02:19:26.167Z,17.30
2022-08-19T02:20:26.162Z,17.00
2022-08-19T02:21:26.154Z,17.20
2022-08-19T02:22:26.147Z,16.40
2022-08-19T02:23:26.141Z,18.90
2022-08-19T02:24:26.136Z,18.80
2022-08-19T02:25:26.131Z,20.50
2022-08-19T02:26:26.123Z,17.90
2022-08-19T02:27:26.118Z,16.50
2022-08-19T02:28:26.110Z,17.90
2022-08-19T02:29:26.107Z,18.90
2022-08-19T02:30:26.097Z,18.00
2022-08-19T02:31:26.093Z,17.70
2022-08-19T02:32:26.085Z,19.70
2022-08-19T02:33:26.081Z,17.60
2022-08-19T02:34:26.075Z,16.00
2022-08-19T02:35:26.069Z,22.20
2022-08-19T02:36:26.063Z,18.40
2022-08-19T02:37:26.057Z,17.70
2022-08-19T02:38:26.048Z,17.60
2022-08-19T02:39:26.044Z,16.70
2022-08-19T02:40:26.034Z,17.50
2022-08-19T02:41:26.883Z,17.00
2022-08-19T02:42:26.029Z,16.20
2022-08-19T02:43:26.019Z,15.70
2022-08-19T02:44:30.929Z,19.70
2022-08-19T02:45:26.017Z,16.30
2022-08-19T02:46:26.004Z,16.50
2022-08-19T02:47:25.995Z,15.80
2022-08-19T02:48:25.986Z,15.70
2022-08-19T02:49:25.985Z,17.70
2022-08-19T02:50:25.975Z,17.80
2022-08-19T02:51:25.972Z,16.80
2022-08-19T02:52:25.962Z,17.00
2022-08-19T02:53:25.958Z,16.70
2022-08-19T02:54:25.950Z,15.30
2022-08-19T02:55:25.944Z,15.70
2022-08-19T02:56:25.937Z,17.10
2022-08-19T02:57:25.933Z,17.00
2022-08-19T02:58:25.925Z,18.70
2022-08-19T02:59:25.920Z,18.80
2022-08-19T03:00:25.913Z,20.10
2022-08-19T03:01:25.922Z,16.90
2022-08-19T03:02:25.902Z,15.70
2022-08-19T03:03:25.895Z,16.30
2022-08-19T03:04:25.890Z,16.80
2022-08-19T03:05:46.853Z,19.10
2022-08-19T03:06:25.879Z,16.30
2022-08-19T03:07:25.871Z,17.80
2022-08-19T03:08:25.868Z,17.90
2022-08-19T03:09:25.857Z,18.50
2022-08-19T03:10:25.853Z,18.10
2022-08-19T03:11:25.847Z,18.70
2022-08-19T03:12:25.939Z,17.80
2022-08-19T03:13:25.833Z,19.90
2022-08-19T03:14:25.829Z,19.10
2022-08-19T03:15:25.820Z,18.80
2022-08-19T03:16:25.815Z,23.00
2022-08-19T03:17:25.809Z,17.50
2022-08-19T03:18:25.809Z,19.20
2022-08-19T03:19:25.794Z,17.30
2022-08-19T03:20:25.789Z,18.00
2022-08-19T03:21:25.783Z,18.50
2022-08-19T03:22:25.780Z,17.40
2022-08-19T03:23:25.769Z,19.40
2022-08-19T03:24:25.767Z,20.40
2022-08-19T03:25:25.759Z,20.30
2022-08-19T03:26:25.754Z,19.30
2022-08-19T03:27:29.038Z,20.70
2022-08-19T03:28:25.743Z,20.80
2022-08-19T03:29:30.180Z,17.70
2022-08-19T03:30:25.743Z,18.20
2022-08-19T03:31:43.423Z,18.80
2022-08-19T03:32:32.653Z,18.40
2022-08-19T03:33:28.617Z,18.20
2022-08-19T03:34:25.707Z,15.20
2022-08-19T03:35:25.696Z,17.00
2022-08-19T03:36:25.693Z,17.20
2022-08-19T03:37:25.734Z,15.30
2022-08-19T03:38:25.687Z,16.70
2022-08-19T03:39:25.672Z,16.60
2022-08-19T03:40:25.668Z,17.80
2022-08-19T03:41:25.662Z,15.60
2022-08-19T03:42:32.285Z,17.60
2022-08-19T03:43:25.648Z,16.50
2022-08-19T03:44:25.643Z,16.20
2022-08-19T03:45:25.635Z,16.60
2022-08-19T03:46:25.630Z,16.80
2022-08-19T03:47:25.623Z,16.10
2022-08-19T03:48:25.619Z,17.30
2022-08-19T03:49:27.212Z,16.60
2022-08-19T03:50:25.610Z,18.50
2022-08-19T03:51:30.802Z,18.90
2022-08-19T03:52:25.594Z,16.20
2022-08-19T03:53:25.586Z,16.60
2022-08-19T03:54:25.586Z,17.70
2022-08-19T03:55:25.575Z,18.70
2022-08-19T03:56:25.569Z,16.40
2022-08-19T03:57:31.713Z,18.30
2022-08-19T03:58:25.556Z,18.80
2022-08-19T03:59:25.548Z,16.20
2022-08-19T04:00:25.544Z,15.90
2022-08-19T04:01:35.336Z,18.30
2022-08-19T04:02:25.531Z,17.60
2022-08-19T04:03:25.523Z,16.40
2022-08-19T04:04:25.521Z,16.50
2022-08-19T04:05:27.904Z,15.70
2022-08-19T04:06:25.505Z,14.80
2022-08-19T04:07:25.499Z,17.10
2022-08-19T04:08:25.494Z,15.30
2022-08-19T04:09:25.486Z,15.30
2022-08-19T04:10:25.481Z,14.60
2022-08-19T04:11:43.470Z,15.30
2022-08-19T04:12:25.468Z,14.50
2022-08-19T04:13:25.460Z,15.60
2022-08-19T04:14:25.458Z,15.20
2022-08-19T04:15:25.446Z,15.90
2022-08-19T04:16:28.568Z,13.30
2022-08-19T04:17:25.435Z,14.00
2022-08-19T04:18:25.431Z,15.20
2022-08-19T04:19:25.422Z,16.70
2022-08-19T04:20:25.417Z,16.10
2022-08-19T04:21:25.410Z,14.90
2022-08-19T04:22:25.505Z,14.80
2022-08-19T04:23:25.396Z,14.80
2022-08-19T04:24:25.593Z,16.30
2022-08-19T04:25:25.382Z,17.60
2022-08-19T04:26:25.380Z,18.60
2022-08-19T04:27:25.370Z,17.50
2022-08-19T04:28:25.366Z,15.30
2022-08-19T04:29:25.358Z,15.30
2022-08-19T04:30:25.354Z,17.30
2022-08-19T04:31:25.345Z,13.60
2022-08-19T04:32:25.340Z,13.90
2022-08-19T04:33:26.790Z,15.80
2022-08-19T04:34:25.328Z,14.10
2022-08-19T04:35:25.320Z,14.90
2022-08-19T04:36:25.314Z,13.80
2022-08-19T04:37:25.305Z,14.10
2022-08-19T04:38:25.303Z,14.70
2022-08-19T04:39:25.294Z,12.50
2022-08-19T04:40:25.295Z,11.70
2022-08-19T04:41:25.281Z,11.50
2022-08-19T04:42:30.733Z,14.90
2022-08-19T04:43:25.267Z,11.70
2022-08-19T04:44:25.262Z,13.20
2022-08-19T04:45:25.255Z,10.90
2022-08-19T04:46:40.676Z,12.30
2022-08-19T04:47:49.420Z,9.70
2022-08-19T04:48:27.263Z,10.70
2022-08-19T04:49:25.228Z,10.60
2022-08-19T04:50:25.224Z,10.90
2022-08-19T04:51:25.215Z,10.40
2022-08-19T04:52:25.212Z,12.90
2022-08-19T04:53:25.203Z,13.60
2022-08-19T04:54:33.802Z,11.60
2022-08-19T04:55:25.189Z,11.60
2022-08-19T04:56:25.186Z,9.80
2022-08-19T04:57:25.181Z,10.20
2022-08-19T04:58:25.174Z,9.60
2022-08-19T04:59:25.165Z,10.40
2022-08-19T05:00:25.160Z,11.30
2022-08-19T05:01:25.232Z,10.90
2022-08-19T05:02:25.148Z,10.30
2022-08-19T05:03:28.777Z,9.60
2022-08-19T05:04:25.134Z,13.50
2022-08-19T05:05:25.126Z,10.60
2022-08-19T05:06:25.121Z,10.40
2022-08-19T05:07:25.129Z,11.50
2022-08-19T05:08:30.897Z,11.50
2022-08-19T05:09:25.308Z,10.70
2022-08-19T05:10:25.100Z,9.70
2022-08-19T05:11:26.683Z,10.30
2022-08-19T05:12:28.939Z,10.40
2022-08-19T05:13:25.078Z,10.20
2022-08-19T05:14:25.072Z,11.30
2022-08-19T05:15:25.062Z,10.10
2022-08-19T05:16:25.058Z,10.60
2022-08-19T05:17:28.164Z,13.30
2022-08-19T05:18:25.047Z,10.60
2022-08-19T05:19:25.036Z,10.40
2022-08-19T05:20:25.036Z,10.30
2022-08-19T05:21:25.025Z,11.50
2022-08-19T05:22:25.021Z,11.00
2022-08-19T05:23:25.112Z,12.50
2022-08-19T05:24:25.006Z,10.90
2022-08-19T05:25:25.000Z,13.50
2022-08-19T05:26:24.995Z,10.70
2022-08-19T05:27:24.986Z,11.10
2022-08-19T05:28:24.982Z,11.20
2022-08-19T05:29:24.972Z,12.20
2022-08-19T05:30:42.151Z,10.60
2022-08-19T05:31:24.961Z,11.00
2022-08-19T05:32:24.956Z,12.20
2022-08-19T05:33:24.948Z,11.20
2022-08-19T05:34:24.944Z,11.60
2022-08-19T05:35:24.938Z,10.70
2022-08-19T05:36:24.931Z,13.10
2022-08-19T05:37:24.924Z,9.60
2022-08-19T05:38:24.918Z,9.60
2022-08-19T05:39:25.010Z,10.50
2022-08-19T05:40:24.907Z,10.40
2022-08-19T05:41:24.898Z,10.20
2022-08-19T05:42:24.893Z,9.80
2022-08-19T05:43:24.886Z,9.60
2022-08-19T05:44:24.881Z,8.90
2022-08-19T05:45:24.872Z,9.70
2022-08-19T05:46:28.145Z,9.00
2022-08-19T05:47:24.857Z,9.60
2022-08-19T05:48:24.858Z,9.30
2022-08-19T05:49:24.845Z,9.60
2022-08-19T05:50:24.842Z,8.70
2022-08-19T05:51:28.826Z,9.10
2022-08-19T05:52:25.990Z,8.60
2022-08-19T05:53:24.821Z,10.40
2022-08-19T05:54:24.817Z,8.10
2022-08-19T05:55:24.808Z,10.80
2022-08-19T05:56:24.804Z,9.80
2022-08-19T05:57:24.801Z,9.20
2022-08-19T05:58:24.792Z,10.10
2022-08-19T05:59:24.988Z,8.40
2022-08-19T06:00:24.903Z,9.50
2022-08-19T06:01:24.772Z,9.70
2022-08-19T06:02:24.843Z,10.70
2022-08-19T06:03:24.767Z,8.60
2022-08-19T06:04:24.752Z,9.30
2022-08-19T06:05:24.745Z,10.00
2022-08-19T06:06:24.746Z,9.60
2022-08-19T06:07:24.780Z,9.00
2022-08-19T06:08:33.679Z,11.70
2022-08-19T06:09:24.719Z,12.20
2022-08-19T06:10:24.714Z,7.90
2022-08-19T06:11:24.706Z,12.30
2022-08-19T06:12:24.700Z,9.00
2022-08-19T06:13:24.693Z,9.30
2022-08-19T06:14:27.717Z,9.70
2022-08-19T06:15:24.679Z,9.30
2022-08-19T06:16:24.678Z,9.60
2022-08-19T06:17:24.669Z,9.50
2022-08-19T06:18:24.666Z,11.50
2022-08-19T06:19:24.655Z,10.90
2022-08-19T06:20:45.948Z,9.20
2022-08-19T06:21:24.644Z,10.10
2022-08-19T06:22:24.639Z,13.40
2022-08-19T06:23:24.630Z,9.20
2022-08-19T06:24:24.626Z,9.80
2022-08-19T06:25:27.819Z,9.60
2022-08-19T06:26:24.615Z,8.70
2022-08-19T06:27:24.605Z,9.00
2022-08-19T06:28:24.603Z,10.10
2022-08-19T06:29:24.606Z,8.30
2022-08-19T06:30:24.590Z,9.30
2022-08-19T06:31:24.582Z,11.70
2022-08-19T06:32:24.576Z,11.40
2022-08-19T06:33:24.569Z,9.30
2022-08-19T06:34:24.566Z,9.90
2022-08-19T06:35:24.557Z,9.10
2022-08-19T06:36:25.254Z,8.60
2022-08-19T06:37:24.545Z,9.10
2022-08-19T06:38:24.558Z,8.00
2022-08-19T06:39:24.532Z,7.80
2022-08-19T06:40:24.529Z,7.70
2022-08-19T06:41:24.519Z,9.00
2022-08-19T06:42:24.518Z,9.70
2022-08-19T06:43:24.508Z,10.00
2022-08-19T06:44:25.836Z,7.90
2022-08-19T06:45:34.526Z,7.70
2022-08-19T06:46:24.492Z,7.60
2022-08-19T06:47:25.326Z,8.50
2022-08-19T06:48:24.482Z,8.50
2022-08-19T06:49:24.472Z,8.00
2022-08-19T06:50:25.044Z,8.50
2022-08-19T06:51:24.526Z,7.20
2022-08-19T06:52:24.454Z,7.20
2022-08-19T06:53:24.449Z,8.70
2022-08-19T06:54:24.445Z,8.50
2022-08-19T06:55:24.434Z,9.70
2022-08-19T06:56:24.431Z,10.20
2022-08-19T06:57:24.426Z,8.50
2022-08-19T06:58:24.420Z,8.90
2022-08-19T06:59:24.412Z,8.10
2022-08-19T07:00:24.533Z,10.30
2022-08-19T07:01:24.403Z,8.40
2022-08-19T07:02:24.496Z,10.10
2022-08-19T07:03:24.398Z,7.80
2022-08-19T07:04:24.387Z,10.10
2022-08-19T07:05:24.376Z,8.30
2022-08-19T07:06:43.104Z,9.50
2022-08-19T07:07:24.362Z,7.90
2022-08-19T07:08:24.467Z,9.10
2022-08-19T07:09:24.357Z,9.70
2022-08-19T07:10:24.392Z,8.00
2022-08-19T07:11:24.340Z,7.40
2022-08-19T07:12:24.336Z,7.60
2022-08-19T07:13:24.329Z,8.70
2022-08-19T07:14:24.323Z,10.10
2022-08-19T07:15:24.319Z,10.50
2022-08-19T07:16:29.226Z,8.90
2022-08-19T07:17:24.309Z,8.20
2022-08-19T07:18:24.309Z,9.20
2022-08-19T07:19:24.293Z,9.10
2022-08-19T07:20:28.569Z,8.30
2022-08-19T07:21:24.283Z,9.00
2022-08-19T07:22:24.632Z,7.40
2022-08-19T07:23:24.293Z,9.90
2022-08-19T07:24:24.260Z,8.90
2022-08-19T07:25:32.271Z,8.00
2022-08-19T07:26:27.873Z,8.60
2022-08-19T07:27:25.450Z,8.10
2022-08-19T07:28:25.106Z,9.70
2022-08-19T07:29:25.823Z,8.30
2022-08-19T07:30:26.293Z,8.90
2022-08-19T07:31:24.219Z,8.00
2022-08-19T07:32:24.214Z,8.90
2022-08-19T07:33:24.208Z,8.90
2022-08-19T07:34:24.201Z,9.80
2022-08-19T07:36:24.190Z,8.20
2022-08-19T07:37:24.181Z,9.50
2022-08-19T07:38:24.180Z,9.00
2022-08-19T07:39:24.170Z,9.40
2022-08-19T07:40:24.170Z,9.10
2022-08-19T07:41:24.160Z,11.70
2022-08-19T07:42:24.154Z,11.00
2022-08-19T07:43:24.145Z,10.00
2022-08-19T07:44:24.141Z,9.00
2022-08-19T07:45:24.134Z,10.20
2022-08-19T07:46:24.134Z,10.30
2022-08-19T07:47:47.504Z,9.10
2022-08-19T07:48:24.117Z,11.10
2022-08-19T07:49:24.160Z,11.10
2022-08-19T07:50:24.106Z,11.60
2022-08-19T07:51:36.759Z,10.10
2022-08-19T07:52:24.092Z,10.10
2022-08-19T07:53:24.085Z,12.70
2022-08-19T07:54:24.080Z,10.00
2022-08-19T07:55:41.470Z,11.40
2022-08-19T07:56:24.081Z,10.20
2022-08-19T07:57:24.059Z,9.70
2022-08-19T07:58:24.056Z,10.10
2022-08-19T07:59:24.049Z,10.80
2022-08-19T08:00:24.598Z,9.40
2022-08-19T08:01:24.064Z,10.60
2022-08-19T08:02:24.030Z,12.30
2022-08-19T08:03:24.023Z,10.50
2022-08-19T08:04:24.018Z,10.40
2022-08-19T08:05:24.010Z,10.90
2022-08-19T08:06:24.007Z,10.10
2022-08-19T08:07:23.997Z,10.30
2022-08-19T08:08:27.704Z,14.00
2022-08-19T08:09:24.027Z,11.30
2022-08-19T08:10:24.340Z,10.90
2022-08-19T08:11:24.212Z,12.20
2022-08-19T08:12:34.187Z,11.40
2022-08-19T08:13:23.961Z,12.10
2022-08-19T08:14:29.324Z,11.00
2022-08-19T08:15:25.085Z,10.40
2022-08-19T08:16:23.944Z,11.70
2022-08-19T08:17:48.784Z,14.60
2022-08-19T08:18:27.679Z,11.00
2022-08-19T08:19:25.860Z,13.10
2022-08-19T08:20:23.919Z,13.00
2022-08-19T08:21:23.911Z,13.60
2022-08-19T08:22:23.908Z,11.30
2022-08-19T08:23:23.896Z,12.50
2022-08-19T08:24:28.470Z,13.40
2022-08-19T08:25:23.887Z,15.90
2022-08-19T08:26:23.884Z,11.50
2022-08-19T08:27:27.050Z,11.50
2022-08-19T08:28:23.869Z,11.70
2022-08-19T08:29:23.861Z,14.20
2022-08-19T08:30:23.906Z,13.10
2022-08-19T08:31:23.849Z,12.10
2022-08-19T08:32:23.847Z,14.00
2022-08-19T08:33:32.896Z,11.60
2022-08-19T08:34:23.831Z,12.90
2022-08-19T08:35:23.822Z,13.20
2022-08-19T08:36:23.820Z,13.50
2022-08-19T08:37:23.812Z,11.90
2022-08-19T08:38:23.807Z,11.50
2022-08-19T08:39:23.813Z,11.20
2022-08-19T08:40:23.854Z,12.40
2022-08-19T08:41:23.789Z,11.10
2022-08-19T08:42:23.783Z,12.40
2022-08-19T08:43:23.776Z,12.60
2022-08-19T08:44:23.771Z,12.40
2022-08-19T08:45:23.762Z,14.00
2022-08-19T08:46:31.645Z,12.90
2022-08-19T08:47:23.750Z,13.30
2022-08-19T08:48:24.166Z,14.00
2022-08-19T08:49:23.738Z,11.60
2022-08-19T08:50:23.734Z,13.10
2022-08-19T08:51:23.802Z,13.40
2022-08-19T08:52:23.723Z,15.50
2022-08-19T08:53:31.120Z,13.40
2022-08-19T08:54:23.713Z,13.90
2022-08-19T08:55:23.700Z,15.30
2022-08-19T08:56:23.727Z,13.30
2022-08-19T08:57:23.689Z,12.50
2022-08-19T08:58:23.688Z,13.60
2022-08-19T08:59:23.679Z,15.40
2022-08-19T09:00:23.673Z,17.10
2022-08-19T09:01:23.748Z,14.40
2022-08-19T09:02:23.661Z,13.50
2022-08-19T09:03:23.652Z,15.50
2022-08-19T09:04:23.933Z,13.10
2022-08-19T09:05:26.115Z,14.10
2022-08-19T09:06:23.637Z,15.30
2022-08-19T09:07:35.407Z,14.70
2022-08-19T09:08:23.624Z,16.60
2022-08-19T09:09:23.617Z,16.90
2022-08-19T09:10:25.950Z,15.40
2022-08-19T09:11:42.074Z,16.70
2022-08-19T09:12:26.969Z,14.50
2022-08-19T09:13:23.592Z,15.40
2022-08-19T09:14:49.245Z,14.80
2022-08-19T09:15:29.958Z,15.10
2022-08-19T09:16:27.960Z,17.10
2022-08-19T09:17:23.569Z,15.30
2022-08-19T09:18:23.565Z,15.50
2022-08-19T09:19:23.557Z,15.80
2022-08-19T09:20:23.553Z,16.60
2022-08-19T09:21:30.304Z,15.70
2022-08-19T09:22:25.517Z,21.90
2022-08-19T09:23:26.627Z,17.30
2022-08-19T09:24:23.528Z,20.50
2022-08-19T09:25:26.722Z,19.70
2022-08-19T09:26:23.517Z,17.40
2022-08-19T09:27:23.509Z,15.70
2022-08-19T09:28:27.273Z,18.20
2022-08-19T09:29:23.497Z,17.60
2022-08-19T09:30:23.497Z,18.10
2022-08-19T09:31:23.485Z,21.40
2022-08-19T09:32:26.581Z,19.00
2022-08-19T09:33:23.487Z,18.40
2022-08-19T09:34:23.471Z,19.70
2022-08-19T09:35:23.461Z,21.80
2022-08-19T09:36:31.283Z,18.60
2022-08-19T09:37:23.450Z,20.20
2022-08-19T09:38:23.451Z,20.30
2022-08-19T09:39:23.437Z,17.10
2022-08-19T09:40:24.768Z,22.80
2022-08-19T09:41:23.426Z,19.50
2022-08-19T09:42:30.338Z,20.60
2022-08-19T09:43:33.873Z,20.70
2022-08-19T09:44:23.413Z,22.20
2022-08-19T09:45:23.403Z,18.80
2022-08-19T09:46:23.901Z,19.90
2022-08-19T09:47:23.389Z,20.60
2022-08-19T09:48:23.763Z,21.80
2022-08-19T09:49:24.428Z,23.20
2022-08-19T09:50:23.375Z,20.80
2022-08-19T09:51:23.368Z,21.90
2022-08-19T09:52:23.375Z,21.10
2022-08-19T09:53:23.356Z,21.00
2022-08-19T09:54:24.903Z,19.40
2022-08-19T09:55:23.402Z,21.40
2022-08-19T09:56:23.342Z,22.30
2022-08-19T09:57:23.330Z,20.00
2022-08-19T09:58:26.546Z,20.40
2022-08-19T09:59:23.318Z,22.80
2022-08-19T10:00:23.313Z,20.80
2022-08-19T10:01:23.400Z,22.50
2022-08-19T10:02:23.307Z,23.00
2022-08-19T10:03:25.421Z,24.10
2022-08-19T10:04:23.293Z,23.50
2022-08-19T10:05:26.711Z,20.90
2022-08-19T10:06:38.173Z,22.70
2022-08-19T10:07:23.270Z,23.80
2022-08-19T10:08:23.269Z,21.10
2022-08-19T10:09:26.205Z,25.30
2022-08-19T10:10:23.255Z,24.10
2022-08-19T10:11:27.278Z,23.50
2022-08-19T10:12:23.243Z,23.60
2022-08-19T10:13:23.235Z,25.50
2022-08-19T10:14:23.487Z,20.00
2022-08-19T10:15:29.280Z,28.70
2022-08-19T10:16:23.219Z,22.10
2022-08-19T10:17:26.409Z,25.00
2022-08-19T10:18:23.208Z,25.80
2022-08-19T10:19:25.276Z,23.30
2022-08-19T10:20:23.197Z,24.60
2022-08-19T10:21:23.187Z,24.20
2022-08-19T10:22:23.183Z,23.50
2022-08-19T10:23:23.175Z,24.10
2022-08-19T10:24:23.172Z,22.90
2022-08-19T10:25:23.163Z,23.50
2022-08-19T10:26:23.160Z,25.40
2022-08-19T10:27:23.154Z,20.80
2022-08-19T10:28:23.148Z,22.70
2022-08-19T10:29:32.553Z,23.40
2022-08-19T10:30:23.136Z,24.50
2022-08-19T10:32:00.448Z,22.20
2022-08-19T10:32:32.047Z,26.50
2022-08-19T10:33:39.068Z,26.20
2022-08-19T10:34:27.817Z,25.10
2022-08-19T10:35:23.105Z,23.90
2022-08-19T10:36:23.100Z,24.80
2022-08-19T10:37:28.860Z,24.30
2022-08-19T10:38:32.417Z,23.80
2022-08-19T10:39:23.522Z,24.20
2022-08-19T10:40:23.173Z,25.20
2022-08-19T10:41:23.071Z,22.40
2022-08-19T10:42:23.069Z,23.00
2022-08-19T10:43:23.058Z,23.70
2022-08-19T10:44:23.054Z,24.60
2022-08-19T10:45:23.047Z,24.70
2022-08-19T10:46:23.045Z,26.10
2022-08-19T10:47:26.086Z,24.80
2022-08-19T10:48:23.033Z,26.60
2022-08-19T10:49:23.025Z,27.70
2022-08-19T10:50:23.021Z,26.40
2022-08-19T10:51:23.090Z,25.80
2022-08-19T10:52:27.251Z,26.70
2022-08-19T10:53:23.003Z,25.40
2022-08-19T10:54:31.136Z,25.00
2022-08-19T10:55:22.990Z,25.60
2022-08-19T10:56:22.987Z,24.50
2022-08-19T10:57:22.980Z,27.80
2022-08-19T10:58:22.976Z,25.60
2022-08-19T10:59:22.967Z,25.20
2022-08-19T11:00:22.964Z,24.90
2022-08-19T11:01:23.122Z,25.20
2022-08-19T11:02:22.954Z,26.20
2022-08-19T11:03:22.944Z,26.10
2022-08-19T11:04:22.941Z,24.50
2022-08-19T11:05:24.417Z,26.90
2022-08-19T11:06:22.933Z,25.40
2022-08-19T11:07:22.925Z,24.20
2022-08-19T11:08:24.162Z,25.20
2022-08-19T11:09:22.912Z,23.10
2022-08-19T11:10:23.169Z,25.40
2022-08-19T11:11:22.901Z,27.00
2022-08-19T11:12:22.898Z,24.40
2022-08-19T11:13:22.890Z,27.10
2022-08-19T11:14:22.886Z,26.30
2022-08-19T11:15:22.879Z,25.80
2022-08-19T11:16:22.876Z,24.20
2022-08-19T11:17:22.869Z,25.50
2022-08-19T11:18:22.866Z,26.50
2022-08-19T11:19:22.859Z,31.60
2022-08-19T11:20:22.857Z,25.30
2022-08-19T11:21:22.847Z,25.10
2022-08-19T11:22:22.844Z,27.30
2022-08-19T11:23:22.836Z,29.30
2022-08-19T11:24:22.831Z,24.50
2022-08-19T11:25:22.825Z,28.50
2022-08-19T11:26:22.821Z,25.50
2022-08-19T11:27:22.814Z,26.10
2022-08-19T11:28:22.813Z,25.40
2022-08-19T11:29:22.806Z,25.10
2022-08-19T11:30:23.001Z,26.40
2022-08-19T11:31:22.791Z,25.50
2022-08-19T11:32:22.793Z,26.20
2022-08-19T11:33:22.784Z,25.60
2022-08-19T11:34:22.775Z,24.90
2022-08-19T11:35:22.772Z,29.40
2022-08-19T11:36:22.781Z,25.00
2022-08-19T11:37:22.762Z,26.60
2022-08-19T11:38:22.958Z,25.50
2022-08-19T11:39:22.751Z,24.40
2022-08-19T11:40:22.845Z,24.70
2022-08-19T11:41:22.740Z,25.30
2022-08-19T11:42:22.734Z,28.00
2022-08-19T11:43:22.731Z,29.40
2022-08-19T11:44:22.722Z,32.40
2022-08-19T11:45:22.719Z,26.40
2022-08-19T11:46:22.712Z,25.00
2022-08-19T11:47:22.708Z,28.00
2022-08-19T11:48:22.701Z,26.30
2022-08-19T11:49:22.696Z,28.40
2022-08-19T11:50:22.691Z,25.20
2022-08-19T11:51:22.729Z,27.40
2022-08-19T11:52:22.680Z,24.20
2022-08-19T11:53:22.677Z,22.30
2022-08-19T11:54:22.668Z,25.80
2022-08-19T11:55:22.764Z,26.00
2022-08-19T11:56:22.658Z,27.50
2022-08-19T11:57:22.656Z,25.60
2022-08-19T11:58:22.648Z,25.30
2022-08-19T11:59:22.644Z,23.00
2022-08-19T12:00:22.642Z,23.30
2022-08-19T12:01:22.633Z,24.90
2022-08-19T12:02:22.649Z,24.30
2022-08-19T12:03:22.624Z,26.70
2022-08-19T12:04:22.672Z,23.10
2022-08-19T12:05:22.615Z,24.30
2022-08-19T12:06:22.618Z,23.50
2022-08-19T12:07:22.617Z,23.10
2022-08-19T12:08:22.594Z,24.40
2022-08-19T12:09:22.593Z,26.20
2022-08-19T12:10:26.258Z,20.80
2022-08-19T12:11:22.582Z,22.90
2022-08-19T12:12:22.575Z,22.20
2022-08-19T12:13:22.570Z,24.20
2022-08-19T12:14:22.564Z,22.20
2022-08-19T12:15:22.561Z,22.80
2022-08-19T12:16:22.554Z,21.00
2022-08-19T12:17:22.552Z,22.90
2022-08-19T12:18:22.545Z,22.30
2022-08-19T12:19:22.847Z,20.70
2022-08-19T12:20:22.533Z,20.60
2022-08-19T12:21:22.530Z,23.00
2022-08-19T12:22:22.524Z,18.70
2022-08-19T12:23:22.518Z,23.70
2022-08-19T12:24:22.514Z,22.00
2022-08-19T12:25:22.510Z,24.10
2022-08-19T12:26:22.503Z,24.50
2022-08-19T12:27:32.030Z,24.30
2022-08-19T12:28:22.492Z,25.60
2022-08-19T12:29:23.892Z,21.90
2022-08-19T12:30:22.483Z,24.30
2022-08-19T12:31:22.478Z,22.80
2022-08-19T12:32:22.471Z,22.90
2022-08-19T12:33:22.469Z,23.30
2022-08-19T12:34:22.465Z,23.00
2022-08-19T12:35:22.457Z,22.20
2022-08-19T12:36:22.552Z,24.90
2022-08-19T12:37:22.450Z,24.80
2022-08-19T12:38:22.442Z,22.70
2022-08-19T12:39:22.440Z,22.30
2022-08-19T12:40:22.431Z,23.40
2022-08-19T12:41:22.479Z,22.70
2022-08-19T12:42:22.422Z,21.30
2022-08-19T12:43:22.418Z,21.60
2022-08-19T12:44:29.165Z,23.90
2022-08-19T12:45:22.408Z,23.20
2022-08-19T12:46:25.433Z,22.50
2022-08-19T12:47:22.397Z,21.80
2022-08-19T12:48:33.898Z,21.40
2022-08-19T12:49:52.007Z,20.90
2022-08-19T12:50:22.381Z,24.00
2022-08-19T12:51:22.383Z,23.50
2022-08-19T12:52:23.103Z,23.00
2022-08-19T12:53:22.368Z,21.20
2022-08-19T12:54:22.360Z,21.30
2022-08-19T12:55:22.362Z,21.30
2022-08-19T12:56:23.408Z,23.10
2022-08-19T12:57:22.351Z,24.30